Skip to content.

Nelson

  

Western Boundary - WBD

Logged in to unit HSN11145 as: Guest
(Last data received Thu 22 Feb 2018 17:30:00 - 49 seconds ago)

Weather FWI Graphs Forecast Hourly FWI Daily FWI Download FWI Data

Hourly FWI Logs | Period From 17:30 21/02/2018 to 17:30 22/02/2018

Change the DoC% for the 24hr period starting 12:00pm 22/2/2018 to

If the date above is the current day, then all future logs will inherit this value until such time as it is changed again. If you wish to change historic values you can do so by going back to the day you want to alter (navigate via the graphs) and change the DoC% there (however this will only affect that day).

WindRainHourly FWIsDaily FWIsForestGrassScrub
DateTime (NZST)Temp (C)RH (%)Dir (deg)Speed (km/h)Hourly (mm)Daily (mm)FFMCISIHFWIFFMCDMCDCISIBUIFWIDSRROS (m/h)FFI (kW/m)FFDCDoC (%)ROS (m/h)GFI (kW/m)GFDCROS (m/h)SFI (kW/m)SFDC
22/02/2018 1600 16.4 65.2 159 1.8 0.0 25.3 0.0 0.0 0 0 L 50 0 0 L 0 0 L
22/02/2018 1500 16.2 67.7 182 1.8 0.0 22.7 0.0 0.0 0 0 L 50 0 0 L 0 0 L
22/02/2018 1400 15.4 65.3 201 6.5 0.0 20.2 0.0 0.0 0 0 L 50 0 0 L 0 0 L
22/02/2018 1300 14.5 62.2 202 7.2 0.0 16.9 0.0 0.0 0 0 L 50 0 0 L 0 0 L
22/02/2018 1200 13.6 77.1 246 8.3 0.0 22.4 13.5 0.0 0.0 27.4 1.6 5.5 0.0 1.8 0.0 0.0 0 0 L 50 0 0 L 0 0 L
22/02/2018 1100 13.6 69.0 201 5.4 0.0 11.0 0.0 0.0 0 0 L 50 0 0 L 0 0 L
22/02/2018 1000 10.8 80.3 205 13.3 0.0 8.3 0.0 0.0 0 0 L 50 0 0 L 0 0 L
22/02/2018 0900 8.9 88.8 184 6.1 0.0 5.9 0.0 0.0 0 0 L 50 0 0 L 0 0 L
22/02/2018 0800 8.5 82.8 188 11.2 0.0 4.8 0.0 0.0 0 0 L 50 0 0 L 0 0 L
22/02/2018 0700 7.9 90.4 176 5.4 0.0 2.9 0.0 0.0 0 0 L 50 0 0 L 0 0 L
22/02/2018 0600 7.6 93.8 192 7.6 0.0 2.0 0.0 0.0 0 0 L 50 0 0 L 0 0 L
22/02/2018 0500 7.3 90.5 196 16.2 0.0 1.3 0.0 0.0 0 0 L 50 0 0 L 0 0 L
22/02/2018 0400 6.9 100.0 209 17.3 1.4 0.0 0.0 0.0 0 0 L 50 0 0 L 0 0 L
22/02/2018 0300 7.8 100.0 213 14.8 1.4 0.0 0.0 0.0 0 0 L 50 0 0 L 0 0 L
22/02/2018 0200 9.6 100.0 181 4.0 0.4 0.0 0.0 0.0 0 0 L 50 0 0 L 0 0 L
22/02/2018 0100 9.7 100.0 76 1.4 2.4 0.0 0.0 0.0 0 0 L 50 0 0 L 0 0 L
22/02/2018 0000 9.9 100.0 83 1.1 1.2 0.0 0.0 0.0 0 0 L 50 0 0 L 0 0 L
21/02/2018 2300 9.7 100.0 90 1.1 0.8 0.0 0.0 0.0 0 0 L 50 0 0 L 0 0 L
21/02/2018 2200 9.8 100.0 82 1.1 0.2 0.0 0.0 0.0 0 0 L 50 0 0 L 0 0 L
21/02/2018 2100 10.3 100.0 67 2.2 1.0 0.0 0.0 0.0 0 0 L 50 0 0 L 0 0 L
21/02/2018 2000 9.8 100.0 131 2.9 0.4 0.0 0.0 0.0 0 0 L 50 0 0 L 0 0 L
21/02/2018 1900 10.0 100.0 232 8.3 1.0 0.0 0.0 0.0 0 0 L 50 0 0 L 0 0 L
21/02/2018 1800 10.4 99.3 85 1.4 1.2 1.4 0.0 0.0 0 0 L 50 0 0 L 0 0 L
21/02/2018 1700 10.1 95.7 225 9.4 7.8 3.1 0.0 0.0 0 0 L 50 0 0 L 0 0 L